createdAt,value
2019-03-03T00:00:11.350Z,100240.08
2019-03-03T00:02:39.162Z,100241.94
2019-03-03T00:05:06.659Z,100248.80
2019-03-03T00:07:33.609Z,100244.88
2019-03-03T00:10:00.761Z,100241.97
2019-03-03T00:12:27.751Z,100239.08
2019-03-03T00:14:54.832Z,100228.72
2019-03-03T00:17:21.778Z,100229.95
2019-03-03T00:19:48.744Z,100231.13
2019-03-03T00:22:15.699Z,100225.28
2019-03-03T00:24:42.814Z,100224.43
2019-03-03T00:27:09.759Z,100220.88
2019-03-03T00:29:36.765Z,100225.94
2019-03-03T00:32:03.713Z,100221.82
2019-03-03T00:34:30.670Z,100225.73
2019-03-03T00:37:29.225Z,100217.14
2019-03-03T00:40:16.435Z,100213.61
2019-03-03T00:42:52.556Z,100221.42
2019-03-03T00:45:38.078Z,100220.05
2019-03-03T00:48:43.187Z,100209.80
2019-03-03T00:51:17.539Z,100209.02
2019-03-03T00:54:02.709Z,100209.30
2019-03-03T00:56:44.831Z,100179.89
2019-03-03T00:59:22.683Z,100209.05
2019-03-03T01:01:57.581Z,100199.97
2019-03-03T01:04:38.379Z,100194.78
2019-03-03T01:07:30.143Z,100196.83
2019-03-03T01:10:08.988Z,100191.52
2019-03-03T01:12:49.402Z,100197.20
2019-03-03T01:15:38.512Z,100194.23
2019-03-03T01:18:40.240Z,100189.98
2019-03-03T01:21:27.917Z,100190.53
2019-03-03T01:24:10.274Z,100187.09
2019-03-03T01:26:37.247Z,100181.28
2019-03-03T01:29:06.245Z,100168.80
2019-03-03T01:31:33.720Z,100174.48
2019-03-03T01:34:00.694Z,100170.02
2019-03-03T01:36:27.678Z,100174.23
2019-03-03T01:38:54.671Z,100169.09
2019-03-03T01:41:21.652Z,100162.27
2019-03-03T01:43:48.605Z,100165.83
2019-03-03T01:46:15.711Z,100156.77
2019-03-03T01:48:42.657Z,100153.80
2019-03-03T01:51:09.648Z,100143.58
2019-03-03T01:53:36.611Z,100137.36
2019-03-03T01:56:04.462Z,100135.63
2019-03-03T01:58:31.499Z,100131.08
2019-03-03T02:00:58.447Z,100106.09
2019-03-03T02:03:25.426Z,100105.14
2019-03-03T02:05:52.364Z,100113.80
2019-03-03T02:08:19.349Z,100106.91
2019-03-03T02:10:46.325Z,100099.78
2019-03-03T02:13:13.529Z,100098.15
2019-03-03T02:15:40.458Z,100095.89
2019-03-03T02:18:07.444Z,100086.73
2019-03-03T02:20:34.416Z,100089.88
2019-03-03T02:23:01.392Z,100083.20
2019-03-03T02:25:28.354Z,100082.22
2019-03-03T02:27:55.313Z,100078.89
2019-03-03T02:30:22.262Z,100084.30
2019-03-03T02:32:49.775Z,100081.90
2019-03-03T02:35:16.783Z,100081.20
2019-03-03T02:37:43.753Z,100089.17
2019-03-03T02:40:12.549Z,100078.05
2019-03-03T02:42:39.541Z,100075.05
2019-03-03T02:45:08.481Z,100068.44
2019-03-03T02:47:35.611Z,100060.09
2019-03-03T02:50:02.871Z,100058.80
2019-03-03T02:52:29.943Z,100050.00
2019-03-03T02:54:56.958Z,100045.02
2019-03-03T02:57:23.933Z,100036.50
2019-03-03T02:59:51.215Z,100030.92
2019-03-03T03:02:49.836Z,100031.52
2019-03-03T03:05:49.850Z,100026.61
2019-03-03T03:08:23.308Z,100026.43
2019-03-03T03:11:21.843Z,100022.30
2019-03-03T03:13:57.044Z,100025.94
2019-03-03T03:16:58.862Z,100017.39
2019-03-03T03:19:31.679Z,99984.64
2019-03-03T03:22:18.230Z,100015.97
2019-03-03T03:24:59.103Z,100011.84
2019-03-03T03:27:45.452Z,100012.05
2019-03-03T03:30:20.366Z,100006.19
2019-03-03T03:33:01.525Z,99999.44
2019-03-03T03:35:36.824Z,100007.74
2019-03-03T03:38:18.879Z,100004.91
2019-03-03T03:40:54.021Z,99999.80
2019-03-03T03:43:55.773Z,99992.84
2019-03-03T03:46:46.185Z,99993.64
2019-03-03T03:49:32.774Z,100000.75
2019-03-03T03:52:19.402Z,99991.88
2019-03-03T03:55:06.176Z,99986.72
2019-03-03T03:57:51.065Z,99987.68
2019-03-03T04:00:43.437Z,99989.02
2019-03-03T04:03:28.866Z,99990.50
2019-03-03T04:06:08.332Z,99979.09
2019-03-03T04:09:03.795Z,99967.83
2019-03-03T04:11:50.869Z,99966.98
2019-03-03T04:14:33.514Z,99974.33
2019-03-03T04:17:22.849Z,99969.66
2019-03-03T04:20:05.015Z,99975.84
2019-03-03T04:22:46.856Z,99973.16
2019-03-03T04:25:32.087Z,99961.41
2019-03-03T04:28:13.616Z,99964.19
2019-03-03T04:30:52.873Z,99966.30
2019-03-03T04:33:32.186Z,99961.26
2019-03-03T04:36:31.763Z,99966.77
2019-03-03T04:39:25.353Z,99968.92
2019-03-03T04:42:05.406Z,99971.64
2019-03-03T04:44:51.027Z,99964.86
2019-03-03T04:47:29.107Z,99958.92
2019-03-03T04:50:24.741Z,99957.91
2019-03-03T04:52:58.837Z,99938.87
2019-03-03T04:55:45.413Z,99942.61
2019-03-03T04:58:30.605Z,99946.25
2019-03-03T05:01:17.181Z,99944.84
2019-03-03T05:04:00.252Z,99931.56
2019-03-03T05:06:52.553Z,99940.95
2019-03-03T05:09:48.119Z,99940.00
2019-03-03T05:12:35.346Z,99934.06
2019-03-03T05:15:17.150Z,99925.90
2019-03-03T05:17:49.227Z,99928.27
2019-03-03T05:20:16.193Z,99914.67
2019-03-03T05:22:43.116Z,99912.20
2019-03-03T05:25:10.183Z,99908.91
2019-03-03T05:27:37.314Z,99905.52
2019-03-03T05:30:05.176Z,99902.70
2019-03-03T05:32:32.151Z,99907.78
2019-03-03T05:34:59.165Z,99896.70
2019-03-03T05:37:26.084Z,99900.05
2019-03-03T05:39:53.088Z,99889.98
2019-03-03T05:42:20.064Z,99885.33
2019-03-03T05:44:47.004Z,99876.64
2019-03-03T05:47:13.986Z,99877.61
2019-03-03T05:49:40.985Z,99882.42
2019-03-03T05:52:08.022Z,99877.98
2019-03-03T05:54:36.687Z,99870.23
2019-03-03T05:57:03.749Z,99869.28
2019-03-03T05:59:30.717Z,99867.55
2019-03-03T06:01:57.691Z,99875.20
2019-03-03T06:04:24.678Z,99865.73
2019-03-03T06:06:51.710Z,99873.89
2019-03-03T06:09:18.640Z,99860.44
2019-03-03T06:11:45.596Z,99860.32
2019-03-03T06:14:12.630Z,99868.51
2019-03-03T06:16:39.600Z,99859.94
2019-03-03T06:19:08.330Z,99861.58
2019-03-03T06:21:35.312Z,99862.20
2019-03-03T06:24:02.230Z,99857.48
2019-03-03T06:26:29.224Z,99859.41
2019-03-03T06:28:56.166Z,99858.52
2019-03-03T06:31:23.148Z,99854.36
2019-03-03T06:33:50.092Z,99855.90
2019-03-03T06:36:17.080Z,99862.98
2019-03-03T06:38:44.002Z,99869.74
2019-03-03T06:41:10.978Z,99874.43
2019-03-03T06:43:37.913Z,99859.17
2019-03-03T06:46:04.893Z,99861.13
2019-03-03T06:48:31.820Z,99863.28
2019-03-03T06:50:58.752Z,99866.21
2019-03-03T06:53:25.904Z,99876.01
2019-03-03T06:55:52.846Z,99869.41
2019-03-03T06:58:19.803Z,99873.83
2019-03-03T07:00:46.742Z,99860.20
2019-03-03T07:03:13.761Z,99868.17
2019-03-03T07:05:40.711Z,99867.27
2019-03-03T07:08:07.689Z,99865.85
2019-03-03T07:10:34.961Z,99873.07
2019-03-03T07:13:01.958Z,99866.73
2019-03-03T07:15:28.888Z,99866.85
2019-03-03T07:17:56.124Z,99863.96
2019-03-03T07:20:23.181Z,99871.87
2019-03-03T07:22:50.660Z,99867.84
2019-03-03T07:25:17.708Z,99870.41
2019-03-03T07:27:44.686Z,99870.16
2019-03-03T07:30:12.849Z,99875.74
2019-03-03T07:32:45.573Z,99869.88
2019-03-03T07:35:12.546Z,99873.41
2019-03-03T07:37:39.653Z,99872.21
2019-03-03T07:40:06.851Z,99872.85
2019-03-03T07:42:33.868Z,99875.91
2019-03-03T07:45:00.813Z,99881.36
2019-03-03T07:47:27.786Z,99870.55
2019-03-03T07:49:54.724Z,99881.12
2019-03-03T07:52:21.712Z,99884.72
2019-03-03T07:54:48.667Z,99876.59
2019-03-03T07:57:15.990Z,99888.80
2019-03-03T07:59:42.958Z,99881.36
2019-03-03T08:02:10.204Z,99879.60
2019-03-03T08:04:37.162Z,99892.07
2019-03-03T08:07:04.158Z,99880.20
2019-03-03T08:09:31.141Z,99880.17
2019-03-03T08:11:59.354Z,99884.19
2019-03-03T08:14:26.283Z,99883.98
2019-03-03T08:16:53.233Z,99899.20
2019-03-03T08:19:20.215Z,99889.31
2019-03-03T08:21:47.160Z,99893.69
2019-03-03T08:24:14.143Z,99905.30
2019-03-03T08:26:41.324Z,99901.53
2019-03-03T08:29:08.287Z,99899.80
2019-03-03T08:31:35.862Z,99892.38
2019-03-03T08:34:03.008Z,99900.50
2019-03-03T08:36:29.960Z,99897.05
2019-03-03T08:38:56.915Z,99892.03
2019-03-03T08:41:23.857Z,99901.84
2019-03-03T08:44:12.955Z,99894.01
2019-03-03T08:46:47.841Z,99893.23
2019-03-03T08:49:43.738Z,99898.21
2019-03-03T08:52:30.331Z,99881.52
2019-03-03T08:55:13.503Z,99894.36
2019-03-03T08:57:49.013Z,99895.98
2019-03-03T09:00:35.631Z,99896.58
2019-03-03T09:03:15.840Z,99891.64
2019-03-03T09:05:55.704Z,99895.06
2019-03-03T09:08:40.819Z,99896.64
2019-03-03T09:11:24.422Z,99896.80
2019-03-03T09:14:11.012Z,99897.75
2019-03-03T09:16:58.891Z,99895.28
2019-03-03T09:19:44.384Z,99897.47
2019-03-03T09:22:20.836Z,99890.37
2019-03-03T09:25:10.309Z,99893.69
2019-03-03T09:28:06.012Z,99889.52
2019-03-03T09:30:51.428Z,99886.69
2019-03-03T09:33:36.942Z,99883.69
2019-03-03T09:36:10.274Z,99888.56
2019-03-03T09:39:12.087Z,99895.06
2019-03-03T09:41:48.533Z,99891.42
2019-03-03T09:44:41.573Z,99884.04
2019-03-03T09:47:34.213Z,99891.92
2019-03-03T09:50:19.288Z,99888.39
2019-03-03T09:53:10.393Z,99891.59
2019-03-03T09:55:49.051Z,99894.53
2019-03-03T09:58:35.612Z,99881.41
2019-03-03T10:01:16.920Z,99884.19
2019-03-03T10:04:02.063Z,99894.92
2019-03-03T10:06:51.435Z,99890.16
2019-03-03T10:09:46.964Z,99881.98
2019-03-03T10:12:26.773Z,99887.59
2019-03-03T10:15:24.433Z,99884.67
2019-03-03T10:18:13.899Z,99889.75
2019-03-03T10:21:00.702Z,99881.48
2019-03-03T10:23:54.955Z,99877.05
2019-03-03T10:26:35.654Z,99882.72
2019-03-03T10:29:11.466Z,99883.34
2019-03-03T10:32:10.312Z,99877.66
2019-03-03T10:34:53.193Z,99880.62
2019-03-03T10:37:49.274Z,99880.69
2019-03-03T10:40:48.028Z,99875.39
2019-03-03T10:43:31.227Z,99872.27
2019-03-03T10:46:16.723Z,99864.36
2019-03-03T10:48:57.567Z,99887.50
2019-03-03T10:51:32.773Z,99874.01
2019-03-03T10:54:07.228Z,99869.02
2019-03-03T10:56:48.743Z,99867.82
2019-03-03T10:59:41.362Z,99866.02
2019-03-03T11:02:34.542Z,99865.55
2019-03-03T11:05:15.412Z,99859.21
2019-03-03T11:08:01.009Z,99853.83
2019-03-03T11:10:35.314Z,99855.48
2019-03-03T11:13:27.682Z,99848.98
2019-03-03T11:16:01.786Z,99845.30
2019-03-03T11:18:39.170Z,99861.47
2019-03-03T11:21:25.981Z,99852.48
2019-03-03T11:24:18.376Z,99855.02
2019-03-03T11:26:55.518Z,99852.33
2019-03-03T11:29:40.384Z,99845.98
2019-03-03T11:32:15.648Z,99852.56
2019-03-03T11:35:01.070Z,99843.79
2019-03-03T11:37:56.921Z,99842.41
2019-03-03T11:40:32.855Z,99850.64
2019-03-03T11:43:21.839Z,99852.09
2019-03-03T11:46:08.503Z,99846.09
2019-03-03T11:48:48.850Z,99843.86
2019-03-03T11:51:25.455Z,99830.59
2019-03-03T11:53:59.045Z,99838.36
2019-03-03T11:56:33.681Z,99836.69
2019-03-03T11:59:26.081Z,99828.47
2019-03-03T12:02:15.166Z,99828.81
2019-03-03T12:05:02.161Z,99829.55
2019-03-03T12:07:47.769Z,99829.08
2019-03-03T12:10:24.997Z,99820.39
2019-03-03T12:13:11.583Z,99823.03
2019-03-03T12:15:58.311Z,99828.04
2019-03-03T12:18:49.557Z,99822.81
2019-03-03T12:21:38.960Z,99814.92
2019-03-03T12:24:15.683Z,99810.15
2019-03-03T12:26:52.025Z,99807.80
2019-03-03T12:29:47.669Z,99812.30
2019-03-03T12:32:27.281Z,99803.87
2019-03-03T12:35:11.149Z,99797.47
2019-03-03T12:37:50.287Z,99797.81
2019-03-03T12:40:51.989Z,99787.73
2019-03-03T12:43:36.917Z,99785.25
2019-03-03T12:46:26.158Z,99784.15
2019-03-03T12:49:06.543Z,99780.02
2019-03-03T12:51:42.569Z,99779.42
2019-03-03T12:54:30.641Z,99768.35
2019-03-03T12:57:06.856Z,99773.13
2019-03-03T12:59:41.930Z,99770.64
2019-03-03T13:02:26.172Z,99770.52
2019-03-03T13:05:18.611Z,99772.12
2019-03-03T13:08:20.265Z,99760.84
2019-03-03T13:11:11.070Z,99758.56
2019-03-03T13:14:03.700Z,99747.64
2019-03-03T13:16:44.593Z,99750.25
2019-03-03T13:19:30.055Z,99753.50
2019-03-03T13:22:20.466Z,99752.32
2019-03-03T13:24:55.288Z,99749.41
2019-03-03T13:27:43.835Z,99746.06
2019-03-03T13:30:46.421Z,99746.91
2019-03-03T13:33:31.006Z,99744.34
2019-03-03T13:36:35.598Z,99740.28
2019-03-03T13:39:17.091Z,99735.46
2019-03-03T13:42:08.851Z,99737.86
2019-03-03T13:44:35.787Z,99732.03
2019-03-03T13:47:02.839Z,99729.67
2019-03-03T13:49:29.789Z,99726.28
2019-03-03T13:51:56.750Z,99719.98
2019-03-03T13:54:23.721Z,99713.30
2019-03-03T13:56:51.321Z,99715.78
2019-03-03T13:59:18.256Z,99717.52
2019-03-03T14:01:45.227Z,99708.00
2019-03-03T14:04:12.489Z,99707.16
2019-03-03T14:06:39.545Z,99709.53
2019-03-03T14:09:08.610Z,99701.92
2019-03-03T14:11:35.611Z,99702.19
2019-03-03T14:14:02.562Z,99700.15
2019-03-03T14:16:29.538Z,99694.39
2019-03-03T14:18:56.462Z,99679.28
2019-03-03T14:21:23.577Z,99682.28
2019-03-03T14:23:50.533Z,99691.06
2019-03-03T14:26:17.523Z,99682.89
2019-03-03T14:28:44.806Z,99675.61
2019-03-03T14:31:12.165Z,99688.91
2019-03-03T14:33:39.096Z,99678.55
2019-03-03T14:36:06.078Z,99680.13
2019-03-03T14:38:33.140Z,99677.13
2019-03-03T14:41:00.134Z,99669.58
2019-03-03T14:43:27.082Z,99672.09
2019-03-03T14:45:54.038Z,99666.52
2019-03-03T14:48:21.077Z,99672.33
2019-03-03T14:50:48.054Z,99669.20
2019-03-03T14:53:14.988Z,99655.17
2019-03-03T14:55:41.963Z,99654.58
2019-03-03T14:58:09.299Z,99662.95
2019-03-03T15:00:36.323Z,99657.52
2019-03-03T15:03:05.309Z,99651.44
2019-03-03T15:05:32.709Z,99650.54
2019-03-03T15:07:59.663Z,99650.97
2019-03-03T15:10:26.703Z,99642.83
2019-03-03T15:12:53.829Z,99643.97
2019-03-03T15:15:21.293Z,99642.11
2019-03-03T15:17:48.360Z,99637.81
2019-03-03T15:20:15.784Z,99634.86
2019-03-03T15:22:43.008Z,99632.25
2019-03-03T15:25:10.579Z,99624.03
2019-03-03T15:27:37.682Z,99617.84
2019-03-03T15:30:05.450Z,99620.41
2019-03-03T15:32:32.493Z,99617.80
2019-03-03T15:34:59.563Z,99611.77
2019-03-03T15:37:26.560Z,99606.29
2019-03-03T15:39:53.507Z,99609.84
2019-03-03T15:42:21.079Z,99604.08
2019-03-03T15:44:48.007Z,99602.39
2019-03-03T15:47:14.969Z,99594.46
2019-03-03T15:49:41.987Z,99589.69
2019-03-03T15:52:09.068Z,99591.80
2019-03-03T15:54:36.031Z,99588.16
2019-03-03T15:57:03.031Z,99581.05
2019-03-03T15:59:29.954Z,99583.11
2019-03-03T16:01:56.909Z,99578.30
2019-03-03T16:04:23.861Z,99581.99
2019-03-03T16:06:50.981Z,99573.67
2019-03-03T16:09:17.903Z,99570.02
2019-03-03T16:11:44.918Z,99565.58
2019-03-03T16:14:12.004Z,99568.66
2019-03-03T16:16:39.000Z,99567.79
2019-03-03T16:19:05.944Z,99574.05
2019-03-03T16:21:32.995Z,99566.75
2019-03-03T16:24:00.219Z,99571.44
2019-03-03T16:26:27.173Z,99558.05
2019-03-03T16:28:54.117Z,99556.90
2019-03-03T16:31:22.947Z,99547.45
2019-03-03T16:33:49.867Z,99539.83
2019-03-03T16:36:16.817Z,99535.44
2019-03-03T16:38:43.944Z,99534.64
2019-03-03T16:41:10.860Z,99539.45
2019-03-03T16:43:37.898Z,99529.41
2019-03-03T16:46:04.950Z,99520.34
2019-03-03T16:48:32.670Z,99516.23
2019-03-03T16:50:59.597Z,99517.95
2019-03-03T16:53:26.754Z,99511.03
2019-03-03T16:55:53.722Z,99506.64
2019-03-03T16:58:20.772Z,99511.64
2019-03-03T17:00:47.696Z,99511.32
2019-03-03T17:03:14.769Z,99511.73
2019-03-03T17:05:41.690Z,99502.95
2019-03-03T17:08:08.660Z,99503.88
2019-03-03T17:10:35.610Z,99504.48
2019-03-03T17:13:02.561Z,99502.48
2019-03-03T17:15:29.531Z,99486.27
2019-03-03T17:17:56.628Z,99490.29
2019-03-03T17:20:23.547Z,99486.45
2019-03-03T17:22:50.521Z,99491.48
2019-03-03T17:25:18.905Z,99482.52
2019-03-03T17:27:45.968Z,99480.02
2019-03-03T17:30:15.053Z,99477.09
2019-03-03T17:32:42.088Z,99479.15
2019-03-03T17:35:09.538Z,99480.92
2019-03-03T17:37:36.594Z,99479.62
2019-03-03T17:40:07.070Z,99469.84
2019-03-03T17:42:34.244Z,99476.53
2019-03-03T17:45:01.227Z,99472.08
2019-03-03T17:47:28.421Z,99474.98
2019-03-03T17:49:55.426Z,99480.55
2019-03-03T17:52:22.375Z,99468.21
2019-03-03T17:54:49.570Z,99468.91
2019-03-03T17:57:16.508Z,99464.13
2019-03-03T17:59:43.461Z,99462.27
2019-03-03T18:02:10.389Z,99471.30
2019-03-03T18:04:37.359Z,99457.36
2019-03-03T18:07:04.340Z,99463.52
2019-03-03T18:09:31.295Z,99451.83
2019-03-03T18:11:58.257Z,99444.20
2019-03-03T18:14:25.222Z,99448.42
2019-03-03T18:16:52.168Z,99448.05
2019-03-03T18:19:19.152Z,99445.20
2019-03-03T18:21:46.100Z,99445.05
2019-03-03T18:24:13.214Z,99437.66
2019-03-03T18:26:40.154Z,99441.05
2019-03-03T18:29:07.125Z,99432.09
2019-03-03T18:31:34.045Z,99427.56
2019-03-03T18:34:01.038Z,99424.50
2019-03-03T18:36:28.289Z,99425.03
2019-03-03T18:38:55.228Z,99425.04
2019-03-03T18:41:22.143Z,99417.11
2019-03-03T18:43:49.114Z,99408.38
2019-03-03T18:46:16.050Z,99398.37
2019-03-03T18:48:43.382Z,99394.67
2019-03-03T18:51:10.309Z,99394.92
2019-03-03T18:53:37.297Z,99396.53
2019-03-03T18:56:04.224Z,99386.53
2019-03-03T18:58:31.169Z,99390.20
2019-03-03T19:00:58.130Z,99379.67
2019-03-03T19:03:25.070Z,99379.52
2019-03-03T19:05:55.830Z,99372.81
2019-03-03T19:08:21.112Z,99371.13
2019-03-03T19:10:48.157Z,99364.73
2019-03-03T19:13:15.161Z,99366.48
2019-03-03T19:15:42.134Z,99363.58
2019-03-03T19:18:09.079Z,99358.78
2019-03-03T19:20:36.053Z,99355.64
2019-03-03T19:23:03.260Z,99353.98
2019-03-03T19:25:30.233Z,99357.42
2019-03-03T19:27:57.158Z,99361.16
2019-03-03T19:30:24.446Z,99348.69
2019-03-03T19:32:57.626Z,99345.44
2019-03-03T19:35:24.591Z,99350.46
2019-03-03T19:37:51.572Z,99339.86
2019-03-03T19:40:18.526Z,99336.69
2019-03-03T19:42:45.453Z,99322.06
2019-03-03T19:45:16.040Z,99315.58
2019-03-03T19:47:42.967Z,99312.43
2019-03-03T19:50:10.840Z,99307.03
2019-03-03T19:52:37.795Z,99297.62
2019-03-03T19:55:06.269Z,99282.94
2019-03-03T19:57:33.197Z,99296.47
2019-03-03T20:00:00.452Z,99256.08
2019-03-03T20:02:27.381Z,99285.94
2019-03-03T20:04:54.361Z,99277.02
2019-03-03T20:07:21.288Z,99272.98
2019-03-03T20:09:48.739Z,99267.13
2019-03-03T20:12:15.689Z,99257.91
2019-03-03T20:14:42.657Z,99261.46
2019-03-03T20:17:09.590Z,99261.84
2019-03-03T20:19:36.514Z,99258.22
2019-03-03T20:22:03.562Z,99253.34
2019-03-03T20:24:30.490Z,99249.84
2019-03-03T20:26:57.438Z,99239.52
2019-03-03T20:29:24.367Z,99227.90
2019-03-03T20:31:51.343Z,99224.79
2019-03-03T20:34:18.275Z,99222.13
2019-03-03T20:36:45.264Z,99217.52
2019-03-03T20:39:12.799Z,99218.78
2019-03-03T20:41:39.751Z,99219.81
2019-03-03T20:44:07.048Z,99210.59
2019-03-03T20:46:34.043Z,99202.03
2019-03-03T20:49:00.993Z,99195.86
2019-03-03T20:51:28.051Z,99193.48
2019-03-03T20:53:55.003Z,99191.45
2019-03-03T20:56:22.101Z,99191.19
2019-03-03T20:58:49.130Z,99190.98
2019-03-03T21:01:16.091Z,99185.84
2019-03-03T21:03:43.020Z,99192.23
2019-03-03T21:06:10.090Z,99184.64
2019-03-03T21:08:37.063Z,99185.41
2019-03-03T21:11:04.101Z,99172.17
2019-03-03T21:13:31.030Z,99165.66
2019-03-03T21:15:58.124Z,99172.48
2019-03-03T21:18:25.262Z,99182.02
2019-03-03T21:20:52.489Z,99182.22
2019-03-03T21:23:19.421Z,99179.91
2019-03-03T21:25:46.383Z,99168.08
2019-03-03T21:28:13.507Z,99158.30
2019-03-03T21:30:40.479Z,99151.38
2019-03-03T21:33:07.457Z,99162.97
2019-03-03T21:35:34.587Z,99163.04
2019-03-03T21:38:01.721Z,99158.50
2019-03-03T21:40:28.657Z,99152.89
2019-03-03T21:42:55.678Z,99139.42
2019-03-03T21:45:22.739Z,99147.92
2019-03-03T21:47:49.954Z,99141.87
2019-03-03T21:50:18.721Z,99146.98
2019-03-03T21:52:45.728Z,99129.68
2019-03-03T21:55:13.415Z,99143.89
2019-03-03T21:57:40.414Z,99147.82
2019-03-03T22:00:22.611Z,99128.42
2019-03-03T22:02:49.586Z,99127.83
2019-03-03T22:05:16.830Z,99117.64
2019-03-03T22:07:43.798Z,99108.00
2019-03-03T22:10:10.733Z,99096.48
2019-03-03T22:12:37.754Z,99110.05
2019-03-03T22:15:05.049Z,99100.23
2019-03-03T22:17:32.006Z,99094.63
2019-03-03T22:19:59.620Z,99095.36
2019-03-03T22:22:26.586Z,99089.41
2019-03-03T22:24:53.594Z,99088.57
2019-03-03T22:27:20.592Z,99090.42
2019-03-03T22:29:47.526Z,99083.42
2019-03-03T22:32:14.508Z,99080.09
2019-03-03T22:34:41.447Z,99075.27
2019-03-03T22:37:08.502Z,99088.36
2019-03-03T22:39:35.556Z,99067.80
2019-03-03T22:42:02.543Z,99071.31
2019-03-03T22:44:29.484Z,99070.33
2019-03-03T22:46:56.457Z,99057.50
2019-03-03T22:49:23.401Z,99057.39
2019-03-03T22:51:50.369Z,99055.05
2019-03-03T22:54:17.298Z,99054.41
2019-03-03T22:56:44.299Z,99045.92
2019-03-03T22:59:11.339Z,99042.73
2019-03-03T23:01:40.727Z,99023.35
2019-03-03T23:04:49.767Z,99012.85
2019-03-03T23:07:27.493Z,98992.36
2019-03-03T23:10:45.677Z,98988.19
2019-03-03T23:13:38.816Z,98977.48
2019-03-03T23:16:35.272Z,98968.12
2019-03-03T23:19:49.283Z,98970.40
2019-03-03T23:23:00.081Z,98945.14
2019-03-03T23:25:50.040Z,98928.36
2019-03-03T23:28:18.662Z,98920.60
2019-03-03T23:30:45.931Z,98935.20
2019-03-03T23:33:13.064Z,98937.64
2019-03-03T23:35:40.101Z,98927.52
2019-03-03T23:38:07.102Z,98929.97
2019-03-03T23:40:34.043Z,98909.00
2019-03-03T23:43:01.013Z,98915.73
2019-03-03T23:45:27.958Z,98918.64
2019-03-03T23:47:54.961Z,98932.33
2019-03-03T23:50:21.903Z,98927.92
2019-03-03T23:52:48.861Z,98929.23
2019-03-03T23:55:15.896Z,98926.14
2019-03-03T23:57:42.850Z,98908.16
